Time;durP1;ratioP1;P1;durP2;ratioP2;P2;SDS_P1;SDS_P2;PMS_P1;PMS_P2;Temp;Humidity;BMP_temperature;BMP_pressure;BME280_temperature;BME280_humidity;BME280_pressure;Samples;Min_cycle;Max_cycle;Signal;HPM_P1;HPM_P2
2021/12/09 00:01:06;;;;;;;96.63;49.45;;;;;;;;;;5038294;28;20025;-76
2021/12/09 00:03:34;;;;;;;80.13;38.77;;;;;;;;;;5055942;28;20047;-76
2021/12/09 00:06:00;;;;;;;135.50;67.32;;;;;;;;;;5055981;28;20013;-75
2021/12/09 00:08:28;;;;;;;96.82;50.55;;;;;;;;;;5037821;28;20020;-75
2021/12/09 00:10:54;;;;;;;174.98;86.90;;;;;;;;;;5037504;28;20024;-76
2021/12/09 00:13:20;;;;;;;160.18;81.88;;;;;;;;;;5056026;28;20028;-75
2021/12/09 00:15:45;;;;;;;124.82;62.55;;;;;;;;;;5037388;28;20035;-76
2021/12/09 00:18:11;;;;;;;198.55;101.32;;;;;;;;;;5055893;28;20454;-75
2021/12/09 00:20:36;;;;;;;133.45;66.55;;;;;;;;;;5037668;28;20025;-75
2021/12/09 00:23:01;;;;;;;113.75;58.80;;;;;;;;;;5054828;28;20024;-75
2021/12/09 00:25:27;;;;;;;128.80;64.75;;;;;;;;;;5055610;28;20025;-75
2021/12/09 00:27:52;;;;;;;127.80;69.60;;;;;;;;;;5037492;28;20028;-75
2021/12/09 00:30:18;;;;;;;149.73;74.63;;;;;;;;;;5037626;28;20107;-75
2021/12/09 00:32:43;;;;;;;170.98;77.05;;;;;;;;;;5055608;28;20026;-76
2021/12/09 00:35:12;;;;;;;159.50;73.03;;;;;;;;;;5037505;28;20028;-76
2021/12/09 00:37:50;;;;;;;146.43;71.30;;;;;;;;;;5055616;28;20025;-76
2021/12/09 00:40:15;;;;;;;102.53;50.38;;;;;;;;;;5055741;28;20348;-75
2021/12/09 00:42:40;;;;;;;105.85;58.78;;;;;;;;;;5056076;28;20463;-76
2021/12/09 00:45:06;;;;;;;81.18;43.78;;;;;;;;;;5055225;28;20025;-75
2021/12/09 00:47:31;;;;;;;66.43;38.08;;;;;;;;;;5037126;28;20128;-75
2021/12/09 00:49:56;;;;;;;95.00;52.55;;;;;;;;;;5036928;28;20120;-75
2021/12/09 00:52:24;;;;;;;98.00;55.13;;;;;;;;;;5055684;28;20031;-75
2021/12/09 00:54:51;;;;;;;108.22;58.25;;;;;;;;;;5055730;28;20023;-76
2021/12/09 00:57:16;;;;;;;108.72;56.17;;;;;;;;;;5055768;28;20054;-76
2021/12/09 00:59:42;;;;;;;87.82;48.75;;;;;;;;;;5055508;28;20380;-75
2021/12/09 01:02:09;;;;;;;84.35;44.75;;;;;;;;;;5055236;28;20028;-75
2021/12/09 01:04:35;;;;;;;97.32;51.17;;;;;;;;;;5055788;28;20036;-76
2021/12/09 01:07:00;;;;;;;174.60;81.53;;;;;;;;;;5055730;28;20057;-76
2021/12/09 01:09:26;;;;;;;174.57;86.07;;;;;;;;;;5054779;28;20512;-75
2021/12/09 01:11:51;;;;;;;173.88;84.50;;;;;;;;;;5055340;28;20032;-76
2021/12/09 01:14:17;;;;;;;216.38;105.13;;;;;;;;;;5056320;28;20023;-75
2021/12/09 01:16:42;;;;;;;197.27;97.35;;;;;;;;;;5056513;28;20043;-75
2021/12/09 01:19:07;;;;;;;223.75;111.38;;;;;;;;;;5055519;28;20028;-75
2021/12/09 01:21:33;;;;;;;211.25;103.75;;;;;;;;;;5037469;28;20054;-75
2021/12/09 01:23:58;;;;;;;192.82;97.85;;;;;;;;;;5036807;28;20021;-74
2021/12/09 01:26:26;;;;;;;173.20;87.32;;;;;;;;;;5055127;28;20037;-76
2021/12/09 01:28:56;;;;;;;136.23;69.07;;;;;;;;;;5055383;28;20024;-75
2021/12/09 01:31:27;;;;;;;116.82;55.45;;;;;;;;;;5036757;28;20495;-76
2021/12/09 01:33:54;;;;;;;174.88;84.60;;;;;;;;;;5055537;28;20021;-76
2021/12/09 01:36:19;;;;;;;235.57;116.68;;;;;;;;;;5036422;28;20036;-75
2021/12/09 01:38:45;;;;;;;232.27;116.28;;;;;;;;;;5055157;28;20482;-76
2021/12/09 01:41:10;;;;;;;227.63;116.90;;;;;;;;;;5055292;28;20020;-76
2021/12/09 01:43:36;;;;;;;195.45;91.82;;;;;;;;;;5054471;28;20024;-76
2021/12/09 01:46:06;;;;;;;195.38;97.45;;;;;;;;;;5037876;28;20047;-76
2021/12/09 01:48:31;;;;;;;121.47;54.80;;;;;;;;;;5054604;28;20064;-75
2021/12/09 01:50:57;;;;;;;186.70;93.60;;;;;;;;;;5036768;28;20455;-76
2021/12/09 01:53:23;;;;;;;184.98;92.22;;;;;;;;;;5036228;28;20020;-75
2021/12/09 01:55:49;;;;;;;77.70;38.85;;;;;;;;;;5054191;28;20021;-75
2021/12/09 01:58:14;;;;;;;148.55;65.82;;;;;;;;;;5055338;28;20076;-76
2021/12/09 02:00:39;;;;;;;191.35;93.07;;;;;;;;;;5055261;28;20070;-75
2021/12/09 02:03:05;;;;;;;150.82;67.40;;;;;;;;;;5057939;28;20468;-75
2021/12/09 02:05:31;;;;;;;136.65;64.40;;;;;;;;;;5040329;28;20039;-75
2021/12/09 02:07:57;;;;;;;133.40;63.50;;;;;;;;;;5058520;28;20538;-76
2021/12/09 02:10:23;;;;;;;159.00;77.57;;;;;;;;;;5058343;28;20116;-75
2021/12/09 02:12:49;;;;;;;174.25;85.10;;;;;;;;;;5040230;28;20359;-76
2021/12/09 02:15:15;;;;;;;181.57;90.93;;;;;;;;;;5039525;28;20028;-76
2021/12/09 02:17:40;;;;;;;147.35;70.35;;;;;;;;;;5040246;28;20403;-75
2021/12/09 02:20:07;;;;;;;153.70;75.50;;;;;;;;;;5058030;28;20456;-76
2021/12/09 02:22:33;;;;;;;160.38;79.50;;;;;;;;;;5058021;28;20025;-76
2021/12/09 02:24:58;;;;;;;273.77;129.57;;;;;;;;;;5057813;28;20419;-76
2021/12/09 02:27:24;;;;;;;359.92;164.55;;;;;;;;;;5039822;28;20081;-75
2021/12/09 02:29:51;;;;;;;286.98;129.82;;;;;;;;;;5057595;28;20138;-76
2021/12/09 02:32:16;;;;;;;204.52;96.22;;;;;;;;;;5057691;28;20487;-75
2021/12/09 02:34:41;;;;;;;167.80;79.95;;;;;;;;;;5058205;28;20063;-75
2021/12/09 02:37:10;;;;;;;186.05;91.43;;;;;;;;;;5039101;28;20024;-76
2021/12/09 02:39:35;;;;;;;203.98;98.47;;;;;;;;;;5059146;28;20116;-75
2021/12/09 02:42:01;;;;;;;239.73;114.03;;;;;;;;;;5058298;28;20092;-75
2021/12/09 02:44:27;;;;;;;226.98;107.50;;;;;;;;;;5039234;28;20077;-76
2021/12/09 02:46:53;;;;;;;214.38;99.50;;;;;;;;;;5039642;28;20483;-75
2021/12/09 02:49:20;;;;;;;223.80;102.43;;;;;;;;;;5058111;28;20032;-75
2021/12/09 02:51:46;;;;;;;148.90;66.53;;;;;;;;;;5057390;28;20074;-74
2021/12/09 02:54:14;;;;;;;129.95;61.17;;;;;;;;;;5039193;28;20078;-75
2021/12/09 02:56:40;;;;;;;66.97;34.58;;;;;;;;;;5057376;28;20040;-75
2021/12/09 02:59:06;;;;;;;30.35;16.58;;;;;;;;;;5039003;28;20356;-75
2021/12/09 03:01:34;;;;;;;21.05;13.75;;;;;;;;;;5039522;28;20024;-75
2021/12/09 03:04:01;;;;;;;103.10;52.00;;;;;;;;;;5057929;28;20020;-75
2021/12/09 03:06:31;;;;;;;122.65;64.50;;;;;;;;;;5057262;28;20025;-76
2021/12/09 03:08:57;;;;;;;181.57;97.35;;;;;;;;;;5039244;28;20024;-76
2021/12/09 03:11:23;;;;;;;89.43;45.72;;;;;;;;;;5038318;28;20082;-75
2021/12/09 03:13:49;;;;;;;52.50;26.63;;;;;;;;;;5039368;28;20021;-75
2021/12/09 03:16:15;;;;;;;71.93;35.92;;;;;;;;;;5057273;28;20032;-75
2021/12/09 03:18:42;;;;;;;81.55;40.15;;;;;;;;;;5038651;28;20024;-75
2021/12/09 03:21:15;;;;;;;104.82;53.42;;;;;;;;;;5038539;28;20028;-75
2021/12/09 03:23:40;;;;;;;104.50;54.85;;;;;;;;;;5056970;28;20817;-75
2021/12/09 03:26:05;;;;;;;95.55;49.85;;;;;;;;;;5056375;28;20047;-76
2021/12/09 03:28:31;;;;;;;83.93;45.95;;;;;;;;;;5039983;28;20105;-76
2021/12/09 03:30:56;;;;;;;110.78;54.83;;;;;;;;;;5056442;28;20035;-76
2021/12/09 03:33:22;;;;;;;70.35;35.40;;;;;;;;;;5056789;28;20023;-76
2021/12/09 03:35:55;;;;;;;78.22;44.15;;;;;;;;;;5057530;28;20159;-75
2021/12/09 03:38:20;;;;;;;60.30;35.08;;;;;;;;;;5057452;28;20095;-75
2021/12/09 03:40:46;;;;;;;50.97;29.08;;;;;;;;;;5038548;28;20460;-76
2021/12/09 03:43:11;;;;;;;73.95;42.33;;;;;;;;;;5038368;28;20469;-75
2021/12/09 03:45:36;;;;;;;98.68;54.40;;;;;;;;;;5038517;28;20440;-75
2021/12/09 03:48:03;;;;;;;75.68;43.58;;;;;;;;;;5038864;28;20024;-75
2021/12/09 03:50:28;;;;;;;91.05;53.10;;;;;;;;;;5055961;28;20432;-75
2021/12/09 03:52:53;;;;;;;58.47;32.42;;;;;;;;;;5056243;28;20056;-75
2021/12/09 03:55:19;;;;;;;38.90;21.23;;;;;;;;;;5056378;28;20482;-75
2021/12/09 03:57:44;;;;;;;32.30;17.35;;;;;;;;;;5038522;28;20140;-75
2021/12/09 04:00:10;;;;;;;48.42;24.52;;;;;;;;;;5037738;28;20028;-75
2021/12/09 04:02:36;;;;;;;54.08;29.05;;;;;;;;;;5038182;28;20115;-75
2021/12/09 04:05:01;;;;;;;61.75;34.22;;;;;;;;;;5038054;28;20116;-75
2021/12/09 04:07:27;;;;;;;63.72;34.83;;;;;;;;;;5037663;28;20446;-75
2021/12/09 04:09:52;;;;;;;63.63;36.28;;;;;;;;;;5039160;28;20035;-75
2021/12/09 04:12:19;;;;;;;36.47;20.10;;;;;;;;;;5055987;28;20031;-75
2021/12/09 04:14:44;;;;;;;72.22;38.42;;;;;;;;;;5056403;28;20024;-75
2021/12/09 04:17:10;;;;;;;83.47;45.45;;;;;;;;;;5056496;28;20032;-75
2021/12/09 04:19:36;;;;;;;63.55;36.35;;;;;;;;;;5057017;28;20052;-75
2021/12/09 04:22:01;;;;;;;28.95;17.25;;;;;;;;;;5055133;28;20103;-75
2021/12/09 04:24:27;;;;;;;38.50;22.25;;;;;;;;;;5056286;28;20012;-75
2021/12/09 04:26:53;;;;;;;38.13;20.90;;;;;;;;;;5056316;28;20020;-75
2021/12/09 04:29:18;;;;;;;74.40;43.05;;;;;;;;;;5037955;28;20505;-75
2021/12/09 04:31:47;;;;;;;91.10;48.33;;;;;;;;;;5055760;28;20051;-76
2021/12/09 04:34:13;;;;;;;93.15;48.33;;;;;;;;;;5055555;28;20024;-76
2021/12/09 04:36:38;;;;;;;100.97;52.65;;;;;;;;;;5055017;28;20028;-75
2021/12/09 04:39:04;;;;;;;76.78;39.22;;;;;;;;;;5056485;28;20376;-76
2021/12/09 04:41:29;;;;;;;42.05;23.52;;;;;;;;;;5037979;28;20078;-75
2021/12/09 04:43:55;;;;;;;33.35;19.77;;;;;;;;;;5037154;28;20132;-75
2021/12/09 04:46:20;;;;;;;53.50;31.42;;;;;;;;;;5055397;28;20029;-75
2021/12/09 04:48:46;;;;;;;42.83;22.52;;;;;;;;;;5038334;28;20032;-74
2021/12/09 04:51:11;;;;;;;42.63;23.48;;;;;;;;;;5055239;28;20020;-74
2021/12/09 04:53:37;;;;;;;39.85;22.33;;;;;;;;;;5037558;28;20024;-75
2021/12/09 04:56:02;;;;;;;40.63;22.33;;;;;;;;;;5054904;28;20086;-75
2021/12/09 04:58:28;;;;;;;48.50;28.20;;;;;;;;;;5033723;28;20059;-75
2021/12/09 05:00:55;;;;;;;45.72;26.15;;;;;;;;;;5033549;28;20040;-75
2021/12/09 05:03:20;;;;;;;45.22;25.95;;;;;;;;;;5034683;28;20025;-75
2021/12/09 05:05:47;;;;;;;41.72;23.48;;;;;;;;;;5036054;28;20032;-75
2021/12/09 05:08:14;;;;;;;47.67;27.38;;;;;;;;;;5034792;28;20033;-74
2021/12/09 05:10:55;;;;;;;33.15;18.17;;;;;;;;;;5035872;28;20056;-75
2021/12/09 05:13:22;;;;;;;24.17;13.85;;;;;;;;;;5036053;28;20025;-75
2021/12/09 05:15:48;;;;;;;34.28;17.63;;;;;;;;;;5033678;28;20028;-75
2021/12/09 05:18:14;;;;;;;35.10;20.90;;;;;;;;;;5034929;28;20444;-75
2021/12/09 05:20:39;;;;;;;51.67;25.25;;;;;;;;;;5034889;28;20404;-75
2021/12/09 05:23:05;;;;;;;57.50;25.25;;;;;;;;;;5033975;28;20068;-75
2021/12/09 05:25:30;;;;;;;164.60;80.53;;;;;;;;;;5035573;28;20029;-75
2021/12/09 05:27:56;;;;;;;68.70;34.50;;;;;;;;;;5035270;28;20025;-75
2021/12/09 05:30:37;;;;;;;47.92;25.42;;;;;;;;;;5033504;28;20464;-75
2021/12/09 05:33:02;;;;;;;61.85;26.27;;;;;;;;;;5035628;28;20025;-75
2021/12/09 05:35:28;;;;;;;50.03;25.38;;;;;;;;;;5038398;28;20032;-75
2021/12/09 05:37:53;;;;;;;58.88;32.88;;;;;;;;;;5038991;28;20029;-75
2021/12/09 05:40:19;;;;;;;61.13;35.47;;;;;;;;;;5039581;28;20044;-75
2021/12/09 05:42:44;;;;;;;194.45;103.18;;;;;;;;;;5037919;28;20056;-75
2021/12/09 05:45:10;;;;;;;443.75;254.40;;;;;;;;;;5038195;28;20021;-75
2021/12/09 05:47:35;;;;;;;252.02;132.60;;;;;;;;;;5021920;28;20028;-75
2021/12/09 05:50:00;;;;;;;76.32;41.95;;;;;;;;;;5036508;28;20060;-75
2021/12/09 05:52:26;;;;;;;129.50;65.35;;;;;;;;;;5037622;28;20021;-75
2021/12/09 05:54:51;;;;;;;205.52;101.43;;;;;;;;;;5039185;28;20024;-74
2021/12/09 05:57:17;;;;;;;108.13;53.05;;;;;;;;;;5025963;28;20455;-75
2021/12/09 05:59:42;;;;;;;142.75;70.38;;;;;;;;;;5038372;28;20111;-75
2021/12/09 06:02:12;;;;;;;117.05;59.00;;;;;;;;;;5037981;28;20025;-75
2021/12/09 06:04:38;;;;;;;253.18;121.85;;;;;;;;;;5037628;28;20527;-75
2021/12/09 06:07:04;;;;;;;178.68;99.13;;;;;;;;;;5038008;28;20029;-75
2021/12/09 06:09:29;;;;;;;612.70;315.70;;;;;;;;;;5038780;28;20032;-74
2021/12/09 06:11:55;;;;;;;363.45;161.80;;;;;;;;;;5038812;28;20029;-74
2021/12/09 06:14:20;;;;;;;382.42;190.48;;;;;;;;;;5038804;28;20423;-74
2021/12/09 06:16:46;;;;;;;310.88;162.55;;;;;;;;;;5038932;28;20400;-75
2021/12/09 06:19:11;;;;;;;301.90;149.80;;;;;;;;;;5038229;28;20033;-74
2021/12/09 06:21:37;;;;;;;278.58;148.57;;;;;;;;;;5038037;28;20479;-74
2021/12/09 06:24:02;;;;;;;262.25;139.57;;;;;;;;;;5039126;28;20435;-74
2021/12/09 06:26:29;;;;;;;226.75;129.13;;;;;;;;;;5036332;28;20024;-75
2021/12/09 06:28:54;;;;;;;175.75;98.60;;;;;;;;;;5036289;28;20159;-75
2021/12/09 06:31:20;;;;;;;472.80;276.20;;;;;;;;;;5038114;28;20056;-75
2021/12/09 06:33:46;;;;;;;370.85;212.80;;;;;;;;;;5054204;28;20456;-74
2021/12/09 06:36:11;;;;;;;422.92;246.63;;;;;;;;;;5037787;28;20029;-75
2021/12/09 06:38:37;;;;;;;149.75;85.63;;;;;;;;;;5036737;28;20159;-75
2021/12/09 06:41:02;;;;;;;88.65;58.65;;;;;;;;;;5036107;28;20021;-74
2021/12/09 06:43:28;;;;;;;101.32;69.60;;;;;;;;;;5036419;28;20052;-75
2021/12/09 06:45:55;;;;;;;95.47;61.35;;;;;;;;;;5037483;28;20032;-75
2021/12/09 06:48:21;;;;;;;77.30;49.50;;;;;;;;;;5037783;28;20591;-75
2021/12/09 06:50:46;;;;;;;72.25;46.88;;;;;;;;;;5037674;28;20242;-75
2021/12/09 06:53:14;;;;;;;83.00;54.50;;;;;;;;;;5038084;28;20112;-76
2021/12/09 06:55:40;;;;;;;214.40;129.60;;;;;;;;;;5036644;28;20025;-75
2021/12/09 06:58:05;;;;;;;120.22;73.38;;;;;;;;;;5039069;28;20044;-75
2021/12/09 07:00:32;;;;;;;108.75;66.18;;;;;;;;;;5045831;28;20023;-75
2021/12/09 07:02:57;;;;;;;144.82;93.22;;;;;;;;;;5045470;28;20460;-76
2021/12/09 07:05:23;;;;;;;205.82;125.50;;;;;;;;;;5013584;28;20043;-75
2021/12/09 07:07:50;;;;;;;184.10;112.80;;;;;;;;;;5014112;28;20044;-75
2021/12/09 07:10:15;;;;;;;116.00;69.20;;;;;;;;;;5014078;28;20045;-75
2021/12/09 07:12:41;;;;;;;102.45;62.05;;;;;;;;;;5033475;28;20025;-75
2021/12/09 07:15:08;;;;;;;102.80;61.80;;;;;;;;;;5014147;28;20029;-75
2021/12/09 07:17:34;;;;;;;90.45;54.17;;;;;;;;;;5032850;28;20178;-75
2021/12/09 07:19:59;;;;;;;105.88;59.95;;;;;;;;;;5014166;28;20104;-76
2021/12/09 07:22:25;;;;;;;102.55;58.17;;;;;;;;;;5033081;28;20158;-76
2021/12/09 07:24:50;;;;;;;141.73;84.40;;;;;;;;;;5013486;28;20029;-76
2021/12/09 07:27:16;;;;;;;144.52;85.30;;;;;;;;;;5029759;28;20551;-75
2021/12/09 07:29:41;;;;;;;169.95;97.60;;;;;;;;;;5013279;28;20817;-76
2021/12/09 07:32:07;;;;;;;168.98;104.68;;;;;;;;;;5032295;28;20025;-76
2021/12/09 07:34:32;;;;;;;112.25;65.70;;;;;;;;;;5013614;28;20021;-75
2021/12/09 07:37:02;;;;;;;83.93;48.78;;;;;;;;;;5032009;28;20032;-74
2021/12/09 07:39:27;;;;;;;;;;;;;;;;;;5033324;28;20028;-75
2021/12/09 07:41:54;;;;;;;121.67;72.63;;;;;;;;;;5033306;28;19917;-76
2021/12/09 07:44:20;;;;;;;106.15;64.00;;;;;;;;;;5032283;28;20025;-76
2021/12/09 07:46:48;;;;;;;102.78;62.70;;;;;;;;;;5031712;28;20884;-75
2021/12/09 07:49:13;;;;;;;85.05;54.80;;;;;;;;;;5030430;28;20033;-75
2021/12/09 07:51:38;;;;;;;60.65;39.53;;;;;;;;;;5013659;28;20029;-75
2021/12/09 07:54:04;;;;;;;79.78;50.22;;;;;;;;;;5030390;28;20472;-76
2021/12/09 07:56:29;;;;;;;68.07;43.70;;;;;;;;;;5033716;28;20035;-75
2021/12/09 07:58:55;;;;;;;51.88;31.15;;;;;;;;;;5024169;28;20025;-76
2021/12/09 08:01:21;;;;;;;66.85;35.95;;;;;;;;;;5043176;28;20385;-76
2021/12/09 08:03:47;;;;;;;50.50;29.40;;;;;;;;;;5036345;28;20071;-76
2021/12/09 08:06:14;;;;;;;54.08;34.13;;;;;;;;;;5035166;28;20077;-75
2021/12/09 08:08:40;;;;;;;86.38;50.80;;;;;;;;;;5023830;28;20032;-75
2021/12/09 08:11:07;;;;;;;36.30;23.67;;;;;;;;;;5023884;28;20081;-76
2021/12/09 08:13:32;;;;;;;47.20;30.45;;;;;;;;;;5041697;28;20028;-75
2021/12/09 08:15:58;;;;;;;52.75;34.80;;;;;;;;;;5041805;28;20039;-75
2021/12/09 08:18:33;;;;;;;45.45;28.02;;;;;;;;;;5040158;28;20033;-75
2021/12/09 08:21:00;;;;;;;91.80;56.20;;;;;;;;;;5041285;28;20025;-75
2021/12/09 08:23:26;;;;;;;56.55;36.72;;;;;;;;;;5024130;28;20063;-75
2021/12/09 08:25:51;;;;;;;51.78;31.45;;;;;;;;;;5041408;28;20101;-76
2021/12/09 08:28:17;;;;;;;53.97;34.88;;;;;;;;;;5041571;28;20025;-75
2021/12/09 08:30:42;;;;;;;46.80;27.75;;;;;;;;;;5023926;28;20056;-76
2021/12/09 08:33:08;;;;;;;41.67;26.63;;;;;;;;;;5041044;28;20612;-75
2021/12/09 08:35:35;;;;;;;57.75;34.30;;;;;;;;;;5041255;28;20448;-75
2021/12/09 08:38:02;;;;;;;95.65;56.03;;;;;;;;;;5022884;28;20381;-75
2021/12/09 08:40:27;;;;;;;126.72;68.60;;;;;;;;;;5025007;28;20082;-73
2021/12/09 08:42:53;;;;;;;158.73;84.57;;;;;;;;;;5028855;28;20041;-72
2021/12/09 08:45:19;;;;;;;145.85;75.93;;;;;;;;;;5028128;28;20029;-72
2021/12/09 08:47:45;;;;;;;73.38;43.22;;;;;;;;;;5027890;28;20132;-74
2021/12/09 08:50:14;;;;;;;58.17;34.35;;;;;;;;;;5029878;28;20108;-72
2021/12/09 08:52:39;;;;;;;61.57;36.40;;;;;;;;;;5010988;28;20471;-72
2021/12/09 08:55:05;;;;;;;46.40;27.52;;;;;;;;;;5010657;28;20476;-75
2021/12/09 08:57:36;;;;;;;50.30;28.55;;;;;;;;;;5028279;28;20052;-72
2021/12/09 09:00:03;;;;;;;56.70;32.78;;;;;;;;;;5035154;28;20017;-78
2021/12/09 09:02:28;;;;;;;63.15;35.70;;;;;;;;;;5038846;28;20028;-77
2021/12/09 09:04:57;;;;;;;68.03;36.88;;;;;;;;;;5039660;28;20032;-77
2021/12/09 09:07:22;;;;;;;138.43;71.10;;;;;;;;;;5040760;28;20410;-77
2021/12/09 09:09:48;;;;;;;110.55;60.55;;;;;;;;;;5021730;28;20094;-74
2021/12/09 09:12:14;;;;;;;108.28;67.63;;;;;;;;;;5022738;28;20033;-75
2021/12/09 09:14:40;;;;;;;90.07;51.30;;;;;;;;;;5040775;28;20020;-76
2021/12/09 09:17:05;;;;;;;101.93;58.78;;;;;;;;;;5040664;28;20154;-72
2021/12/09 09:19:30;;;;;;;96.40;55.25;;;;;;;;;;5043084;28;20050;-73
2021/12/09 09:21:56;;;;;;;82.88;49.85;;;;;;;;;;5055377;28;20032;-72
2021/12/09 09:24:22;;;;;;;83.10;50.25;;;;;;;;;;5054439;28;20021;-72
2021/12/09 09:26:47;;;;;;;89.85;50.05;;;;;;;;;;5030484;28;20025;-74
2021/12/09 09:29:13;;;;;;;91.40;47.38;;;;;;;;;;5013419;28;20032;-74
2021/12/09 09:31:40;;;;;;;200.90;88.88;;;;;;;;;;5016063;28;20079;-74
2021/12/09 09:34:06;;;;;;;97.40;51.88;;;;;;;;;;5034457;28;20028;-73
2021/12/09 09:36:32;;;;;;;90.15;51.50;;;;;;;;;;5016241;28;20021;-77
2021/12/09 09:39:11;;;;;;;67.20;38.42;;;;;;;;;;5032831;28;20039;-75
2021/12/09 09:41:37;;;;;;;67.43;39.78;;;;;;;;;;5033605;28;20017;-75
2021/12/09 09:44:14;;;;;;;45.88;27.38;;;;;;;;;;5032599;28;20102;-74
2021/12/09 09:46:40;;;;;;;45.67;30.48;;;;;;;;;;5015659;28;20020;-75
2021/12/09 09:49:06;;;;;;;62.42;39.40;;;;;;;;;;5034709;28;20025;-76
2021/12/09 09:51:32;;;;;;;56.28;36.25;;;;;;;;;;5033889;28;20025;-74
2021/12/09 09:53:58;;;;;;;47.38;30.42;;;;;;;;;;5033275;28;20031;-76
2021/12/09 09:56:24;;;;;;;64.70;39.97;;;;;;;;;;5018069;28;20025;-75
2021/12/09 09:58:54;;;;;;;46.47;29.33;;;;;;;;;;5054266;28;20059;-74
2021/12/09 10:01:21;;;;;;;40.35;25.30;;;;;;;;;;5052686;28;20078;-73
2021/12/09 10:03:47;;;;;;;46.55;30.35;;;;;;;;;;5054218;28;20028;-74
2021/12/09 10:06:14;;;;;;;58.42;34.63;;;;;;;;;;5054967;28;20023;-74
2021/12/09 10:08:40;;;;;;;50.33;31.05;;;;;;;;;;5043917;28;20048;-74
2021/12/09 10:11:05;;;;;;;77.22;43.63;;;;;;;;;;5032441;28;20033;-75
2021/12/09 10:13:37;;;;;;;44.45;26.58;;;;;;;;;;5034458;28;20562;-76
2021/12/09 10:16:05;;;;;;;41.75;27.17;;;;;;;;;;5035203;28;20029;-76
2021/12/09 10:18:35;;;;;;;43.80;26.55;;;;;;;;;;5038654;28;20035;-74
2021/12/09 10:21:01;;;;;;;34.33;21.90;;;;;;;;;;5042125;28;20536;-74
2021/12/09 10:23:28;;;;;;;32.65;21.35;;;;;;;;;;5028848;28;20021;-73
2021/12/09 10:26:26;;;;;;;39.90;27.70;;;;;;;;;;5046782;28;20020;-74
2021/12/09 10:29:03;;;;;;;43.55;28.20;;;;;;;;;;4998601;28;20036;-74
2021/12/09 10:31:33;;;;;;;34.85;24.42;;;;;;;;;;5042960;28;20025;-75
2021/12/09 10:34:05;;;;;;;41.25;28.08;;;;;;;;;;5036216;28;20114;-74
2021/12/09 10:36:42;;;;;;;43.55;29.13;;;;;;;;;;5033549;28;20025;-74
2021/12/09 10:39:15;;;;;;;40.85;26.73;;;;;;;;;;5043290;28;20021;-75
2021/12/09 10:41:41;;;;;;;46.85;32.22;;;;;;;;;;5018333;28;20022;-76
2021/12/09 10:44:06;;;;;;;40.50;28.38;;;;;;;;;;5018626;28;20025;-74
2021/12/09 10:46:47;;;;;;;40.72;27.20;;;;;;;;;;5017018;28;20445;-76
2021/12/09 10:49:13;;;;;;;30.60;21.00;;;;;;;;;;5017931;28;20021;-73
2021/12/09 10:51:45;;;;;;;30.73;20.58;;;;;;;;;;5039929;28;20127;-74
2021/12/09 10:54:10;;;;;;;30.95;21.33;;;;;;;;;;5041570;28;20099;-75
2021/12/09 10:56:35;;;;;;;33.20;22.75;;;;;;;;;;5044804;28;20434;-77
2021/12/09 10:59:02;;;;;;;31.92;23.27;;;;;;;;;;5051737;28;20032;-77
2021/12/09 11:01:28;;;;;;;29.40;20.27;;;;;;;;;;5035235;28;20032;-77
2021/12/09 11:03:54;;;;;;;34.67;23.15;;;;;;;;;;5040618;28;20023;-76
2021/12/09 11:06:28;;;;;;;39.15;25.45;;;;;;;;;;5055067;28;20021;-74
2021/12/09 11:08:54;;;;;;;88.25;43.15;;;;;;;;;;5054118;28;20033;-74
2021/12/09 11:11:25;;;;;;;41.80;25.08;;;;;;;;;;5076836;28;20028;-76
2021/12/09 11:13:52;;;;;;;116.68;55.70;;;;;;;;;;5048756;28;20031;-76
2021/12/09 11:16:23;;;;;;;48.05;28.38;;;;;;;;;;5034717;28;20029;-76
2021/12/09 11:18:50;;;;;;;46.28;29.05;;;;;;;;;;5052128;28;20029;-75
2021/12/09 11:21:16;;;;;;;46.40;28.80;;;;;;;;;;5033040;28;20029;-76
2021/12/09 11:23:43;;;;;;;40.85;25.27;;;;;;;;;;5052729;28;20033;-74
2021/12/09 11:26:22;;;;;;;41.00;29.02;;;;;;;;;;5034492;28;20021;-76
2021/12/09 11:28:51;;;;;;;39.42;27.60;;;;;;;;;;5052409;28;20723;-74
2021/12/09 11:31:18;;;;;;;73.70;43.97;;;;;;;;;;5052353;28;20019;-77
2021/12/09 11:33:45;;;;;;;51.35;31.83;;;;;;;;;;5051732;28;20395;-76
2021/12/09 11:36:17;;;;;;;44.75;26.67;;;;;;;;;;5033569;28;20032;-74
2021/12/09 11:39:06;;;;;;;40.08;26.85;;;;;;;;;;5034014;28;20407;-76
2021/12/09 11:41:34;;;;;;;47.38;29.23;;;;;;;;;;5036320;28;20032;-75
2021/12/09 11:43:59;;;;;;;46.97;30.17;;;;;;;;;;5035433;28;20916;-77
2021/12/09 11:46:25;;;;;;;48.28;30.90;;;;;;;;;;5033334;28;20033;-76
2021/12/09 11:48:50;;;;;;;53.10;32.50;;;;;;;;;;5042376;28;20032;-76
2021/12/09 11:51:15;;;;;;;51.75;30.85;;;;;;;;;;5056262;28;20088;-77
2021/12/09 11:53:44;;;;;;;61.03;31.83;;;;;;;;;;5067409;28;20028;-77
2021/12/09 11:56:24;;;;;;;55.72;31.10;;;;;;;;;;5055715;28;20635;-74
2021/12/09 11:59:51;;;;;;;57.00;30.88;;;;;;;;;;5055974;28;20040;-75
2021/12/09 12:08:00;;;;;;;63.42;37.40;;;;;;;;;;5056292;28;20396;-74
2021/12/09 12:13:33;;;;;;;92.05;45.10;;;;;;;;;;5055866;28;20077;-75
2021/12/09 12:16:19;;;;;;;56.38;30.38;;;;;;;;;;5037886;28;20025;-77
2021/12/09 12:19:37;;;;;;;64.05;39.38;;;;;;;;;;5055547;28;20055;-76
2021/12/09 12:22:07;;;;;;;35.63;23.08;;;;;;;;;;5044818;28;20042;-74
2021/12/09 12:27:11;;;;;;;50.55;30.80;;;;;;;;;;5075772;28;20032;-76
2021/12/09 12:41:00;;;;;;;55.78;34.17;;;;;;;;;;5053125;28;20020;-76
2021/12/09 12:43:37;;;;;;;70.30;40.17;;;;;;;;;;5051348;28;20059;-73
2021/12/09 12:48:44;;;;;;;;;;;;;;;;;;5058386;28;20048;-73
2021/12/09 12:51:12;;;;;;;50.55;32.10;;;;;;;;;;5053014;28;20904;-74
2021/12/09 12:53:40;;;;;;;70.25;44.13;;;;;;;;;;5055202;28;20012;-74
2021/12/09 12:56:25;;;;;;;42.97;31.17;;;;;;;;;;5038235;28;20433;-74
2021/12/09 12:59:07;;;;;;;58.42;36.58;;;;;;;;;;5030386;28;20040;-74
2021/12/09 13:01:35;;;;;;;43.05;27.48;;;;;;;;;;5052914;28;20034;-75
2021/12/09 13:04:14;;;;;;;49.38;29.35;;;;;;;;;;5056260;28;20063;-75
2021/12/09 13:06:45;;;;;;;54.72;31.90;;;;;;;;;;5051345;28;20024;-73
2021/12/09 13:10:00;;;;;;;42.28;27.80;;;;;;;;;;5051952;28;21049;-81
2021/12/09 13:12:31;;;;;;;55.88;31.25;;;;;;;;;;5055581;28;20074;-78
2021/12/09 13:15:08;;;;;;;62.15;36.45;;;;;;;;;;5059754;28;20020;-79
2021/12/09 13:17:43;;;;;;;98.93;51.30;;;;;;;;;;5054265;28;20066;-77
2021/12/09 13:20:25;;;;;;;63.03;32.03;;;;;;;;;;5038267;28;20028;-77
2021/12/09 13:23:10;;;;;;;48.33;29.35;;;;;;;;;;5034349;28;20024;-78
2021/12/09 13:25:36;;;;;;;64.88;36.97;;;;;;;;;;5062473;28;20447;-77
2021/12/09 13:28:05;;;;;;;45.28;28.27;;;;;;;;;;5058454;28;20029;-75
2021/12/09 13:33:39;;;;;;;55.63;32.75;;;;;;;;;;5034973;28;20059;-77
2021/12/09 13:49:50;;;;;;;64.05;41.25;;;;;;;;;;5010940;28;20029;-76
2021/12/09 13:55:07;;;;;;;61.53;34.90;;;;;;;;;;5055917;28;20032;-77
2021/12/09 13:57:38;;;;;;;62.50;36.72;;;;;;;;;;5056790;28;20131;-76
2021/12/09 14:00:06;;;;;;;62.50;34.58;;;;;;;;;;5064108;28;20052;-76
2021/12/09 14:02:31;;;;;;;100.80;52.22;;;;;;;;;;5054539;28;20020;-76
2021/12/09 14:04:57;;;;;;;78.53;41.50;;;;;;;;;;5072379;28;20034;-75
2021/12/09 14:07:33;;;;;;;66.57;36.78;;;;;;;;;;5040329;28;20374;-76
2021/12/09 14:10:05;;;;;;;73.72;43.63;;;;;;;;;;5058330;28;20024;-76
2021/12/09 14:12:37;;;;;;;57.90;35.55;;;;;;;;;;5057815;28;20063;-76
2021/12/09 14:15:17;;;;;;;54.53;34.78;;;;;;;;;;5056741;28;20056;-77
2021/12/09 14:17:45;;;;;;;53.22;33.10;;;;;;;;;;5073410;28;20031;-75
2021/12/09 14:20:17;;;;;;;65.95;41.42;;;;;;;;;;5056908;28;20519;-75
2021/12/09 14:22:43;;;;;;;59.85;37.58;;;;;;;;;;5058238;28;20029;-76
2021/12/09 14:25:14;;;;;;;154.05;71.35;;;;;;;;;;5056702;28;20020;-76
2021/12/09 14:27:40;;;;;;;102.55;53.40;;;;;;;;;;5057404;28;20498;-75
2021/12/09 14:30:08;;;;;;;83.82;44.17;;;;;;;;;;5057008;28;20032;-75
2021/12/09 14:32:34;;;;;;;122.95;62.90;;;;;;;;;;5039539;28;20070;-76
2021/12/09 14:35:01;;;;;;;71.07;40.63;;;;;;;;;;5039451;28;20020;-75
2021/12/09 14:37:27;;;;;;;99.97;50.75;;;;;;;;;;5057552;28;20024;-74
2021/12/09 14:40:02;;;;;;;143.98;68.80;;;;;;;;;;5039883;28;20021;-74
2021/12/09 14:42:27;;;;;;;101.28;52.63;;;;;;;;;;5058008;28;20013;-75
2021/12/09 14:44:57;;;;;;;84.65;46.22;;;;;;;;;;5057579;28;20025;-77
2021/12/09 14:47:22;;;;;;;;;;;;;;;;;;5058495;28;20029;-75
2021/12/09 14:49:53;;;;;;;112.10;55.23;;;;;;;;;;5039382;28;20316;-74
2021/12/09 14:52:38;;;;;;;85.57;44.45;;;;;;;;;;5057701;28;20708;-75
2021/12/09 14:55:10;;;;;;;84.57;45.72;;;;;;;;;;5058301;28;20029;-76
2021/12/09 14:57:50;;;;;;;157.88;78.30;;;;;;;;;;5057912;28;20415;-75
2021/12/09 15:00:26;;;;;;;73.28;38.08;;;;;;;;;;5057349;28;20825;-76